sensor_id;sensor_type;location;lat;lon;timestamp;temperature;humidity
61641;HTU21D;62201;49.966;8.342;2023-03-03T00:02:12;3.20;56.77
61641;HTU21D;62201;49.966;8.342;2023-03-03T00:04:37;3.12;57.08
61641;HTU21D;62201;49.966;8.342;2023-03-03T00:07:03;3.00;57.36
61641;HTU21D;62201;49.966;8.342;2023-03-03T00:09:29;2.89;57.71
61641;HTU21D;62201;49.966;8.342;2023-03-03T00:11:56;2.83;59.77
61641;HTU21D;62201;49.966;8.342;2023-03-03T00:14:28;2.85;59.09
61641;HTU21D;62201;49.966;8.342;2023-03-03T00:16:54;2.84;58.45
61641;HTU21D;62201;49.966;8.342;2023-03-03T00:19:21;2.75;58.67
61641;HTU21D;62201;49.966;8.342;2023-03-03T00:21:57;2.67;59.16
61641;HTU21D;62201;49.966;8.342;2023-03-03T00:24:27;2.60;59.63
61641;HTU21D;62201;49.966;8.342;2023-03-03T00:26:56;2.51;59.85
61641;HTU21D;62201;49.966;8.342;2023-03-03T00:34:36;2.51;60.57
61641;HTU21D;62201;49.966;8.342;2023-03-03T00:37:02;2.44;60.93
61641;HTU21D;62201;49.966;8.342;2023-03-03T00:39:38;2.37;60.92
61641;HTU21D;62201;49.966;8.342;2023-03-03T00:42:15;2.37;61.47
61641;HTU21D;62201;49.966;8.342;2023-03-03T00:47:29;2.37;61.78
61641;HTU21D;62201;49.966;8.342;2023-03-03T00:53:05;2.26;62.05
61641;HTU21D;62201;49.966;8.342;2023-03-03T00:55:32;2.21;62.08
61641;HTU21D;62201;49.966;8.342;2023-03-03T00:57:58;2.17;62.24
61641;HTU21D;62201;49.966;8.342;2023-03-03T01:00:23;2.22;63.32
61641;HTU21D;62201;49.966;8.342;2023-03-03T01:02:49;2.30;63.04
61641;HTU21D;62201;49.966;8.342;2023-03-03T01:05:17;2.31;63.11
61641;HTU21D;62201;49.966;8.342;2023-03-03T01:07:43;2.23;63.35
61641;HTU21D;62201;49.966;8.342;2023-03-03T01:10:08;2.17;63.44
61641;HTU21D;62201;49.966;8.342;2023-03-03T01:12:34;2.10;63.53
61641;HTU21D;62201;49.966;8.342;2023-03-03T01:15:00;1.98;63.94
61641;HTU21D;62201;49.966;8.342;2023-03-03T01:17:26;1.87;64.28
61641;HTU21D;62201;49.966;8.342;2023-03-03T01:19:51;1.79;64.75
61641;HTU21D;62201;49.966;8.342;2023-03-03T01:22:17;1.72;65.71
61641;HTU21D;62201;49.966;8.342;2023-03-03T01:24:42;1.72;65.47
61641;HTU21D;62201;49.966;8.342;2023-03-03T01:27:07;1.68;65.71
61641;HTU21D;62201;49.966;8.342;2023-03-03T01:29:33;1.64;65.87
61641;HTU21D;62201;49.966;8.342;2023-03-03T01:31:58;1.58;66.21
61641;HTU21D;62201;49.966;8.342;2023-03-03T01:34:24;1.57;66.24
61641;HTU21D;62201;49.966;8.342;2023-03-03T01:36:49;1.53;67.30
61641;HTU21D;62201;49.966;8.342;2023-03-03T01:39:14;1.56;67.17
61641;HTU21D;62201;49.966;8.342;2023-03-03T01:41:40;1.61;67.53
61641;HTU21D;62201;49.966;8.342;2023-03-03T01:44:06;1.67;67.10
61641;HTU21D;62201;49.966;8.342;2023-03-03T01:46:53;1.87;67.29
61641;HTU21D;62201;49.966;8.342;2023-03-03T01:49:28;1.83;67.14
61641;HTU21D;62201;49.966;8.342;2023-03-03T01:52:00;1.83;68.14
61641;HTU21D;62201;49.966;8.342;2023-03-03T01:54:50;1.93;68.31
61641;HTU21D;62201;49.966;8.342;2023-03-03T01:57:23;1.84;67.31
61641;HTU21D;62201;49.966;8.342;2023-03-03T01:59:52;1.73;67.68
61641;HTU21D;62201;49.966;8.342;2023-03-03T02:02:19;1.80;68.79
61641;HTU21D;62201;49.966;8.342;2023-03-03T02:04:45;1.77;68.55
61641;HTU21D;62201;49.966;8.342;2023-03-03T02:07:11;1.75;68.95
61641;HTU21D;62201;49.966;8.342;2023-03-03T02:10:04;1.73;68.34
61641;HTU21D;62201;49.966;8.342;2023-03-03T02:12:42;1.66;68.71
61641;HTU21D;62201;49.966;8.342;2023-03-03T02:15:30;1.63;69.09
61641;HTU21D;62201;49.966;8.342;2023-03-03T02:18:13;1.64;69.16
61641;HTU21D;62201;49.966;8.342;2023-03-03T02:26:12;1.68;70.47
61641;HTU21D;62201;49.966;8.342;2023-03-03T02:28:38;1.60;69.91
61641;HTU21D;62201;49.966;8.342;2023-03-03T02:31:07;1.51;70.62
61641;HTU21D;62201;49.966;8.342;2023-03-03T02:33:36;1.50;70.35
61641;HTU21D;62201;49.966;8.342;2023-03-03T02:36:02;1.55;70.62
61641;HTU21D;62201;49.966;8.342;2023-03-03T02:38:31;1.55;70.74
61641;HTU21D;62201;49.966;8.342;2023-03-03T02:46:20;1.43;71.80
61641;HTU21D;62201;49.966;8.342;2023-03-03T02:48:46;1.49;72.15
61641;HTU21D;62201;49.966;8.342;2023-03-03T02:51:11;1.58;71.86
61641;HTU21D;62201;49.966;8.342;2023-03-03T02:53:37;1.60;71.77
61641;HTU21D;62201;49.966;8.342;2023-03-03T02:56:02;1.56;71.91
61641;HTU21D;62201;49.966;8.342;2023-03-03T02:58:29;1.46;71.80
61641;HTU21D;62201;49.966;8.342;2023-03-03T03:00:54;1.36;72.41
61641;HTU21D;62201;49.966;8.342;2023-03-03T03:03:20;1.33;73.06
61641;HTU21D;62201;49.966;8.342;2023-03-03T03:05:45;1.40;73.13
61641;HTU21D;62201;49.966;8.342;2023-03-03T03:08:11;1.41;72.75
61641;HTU21D;62201;49.966;8.342;2023-03-03T03:10:36;1.41;72.96
61641;HTU21D;62201;49.966;8.342;2023-03-03T03:13:01;1.34;72.66
61641;HTU21D;62201;49.966;8.342;2023-03-03T03:15:27;1.25;74.18
61641;HTU21D;62201;49.966;8.342;2023-03-03T03:17:52;1.21;73.60
61641;HTU21D;62201;49.966;8.342;2023-03-03T03:20:17;1.11;73.52
61641;HTU21D;62201;49.966;8.342;2023-03-03T03:22:43;1.05;73.81
61641;HTU21D;62201;49.966;8.342;2023-03-03T03:25:08;0.97;74.62
61641;HTU21D;62201;49.966;8.342;2023-03-03T03:27:34;0.95;74.99
61641;HTU21D;62201;49.966;8.342;2023-03-03T03:30:00;0.91;74.31
61641;HTU21D;62201;49.966;8.342;2023-03-03T03:32:25;0.79;74.31
61641;HTU21D;62201;49.966;8.342;2023-03-03T03:34:51;0.68;74.70
61641;HTU21D;62201;49.966;8.342;2023-03-03T03:37:16;0.62;75.48
61641;HTU21D;62201;49.966;8.342;2023-03-03T03:39:41;0.65;76.41
61641;HTU21D;62201;49.966;8.342;2023-03-03T03:42:07;0.65;76.15
61641;HTU21D;62201;49.966;8.342;2023-03-03T03:44:32;0.71;76.40
61641;HTU21D;62201;49.966;8.342;2023-03-03T03:46:58;0.71;76.24
61641;HTU21D;62201;49.966;8.342;2023-03-03T03:49:23;0.68;76.02
61641;HTU21D;62201;49.966;8.342;2023-03-03T03:51:49;0.67;77.39
61641;HTU21D;62201;49.966;8.342;2023-03-03T03:54:14;0.64;77.43
61641;HTU21D;62201;49.966;8.342;2023-03-03T03:56:39;0.64;77.65
61641;HTU21D;62201;49.966;8.342;2023-03-03T03:59:06;0.61;77.89
61641;HTU21D;62201;49.966;8.342;2023-03-03T04:01:32;0.61;77.57
61641;HTU21D;62201;49.966;8.342;2023-03-03T04:03:57;0.53;76.95
61641;HTU21D;62201;49.966;8.342;2023-03-03T04:06:23;0.48;77.51
61641;HTU21D;62201;49.966;8.342;2023-03-03T04:08:48;0.46;78.79
61641;HTU21D;62201;49.966;8.342;2023-03-03T04:11:14;0.47;79.47
61641;HTU21D;62201;49.966;8.342;2023-03-03T04:13:39;0.45;78.50
61641;HTU21D;62201;49.966;8.342;2023-03-03T04:16:05;0.46;78.71
61641;HTU21D;62201;49.966;8.342;2023-03-03T04:18:30;0.51;79.42
61641;HTU21D;62201;49.966;8.342;2023-03-03T04:20:56;0.50;79.32
61641;HTU21D;62201;49.966;8.342;2023-03-03T04:23:21;0.46;78.92
61641;HTU21D;62201;49.966;8.342;2023-03-03T04:25:47;0.45;79.64
61641;HTU21D;62201;49.966;8.342;2023-03-03T04:28:15;0.43;81.78
61641;HTU21D;62201;49.966;8.342;2023-03-03T04:30:40;0.46;81.85
61641;HTU21D;62201;49.966;8.342;2023-03-03T04:33:06;0.47;80.36
61641;HTU21D;62201;49.966;8.342;2023-03-03T04:35:31;0.37;79.97
61641;HTU21D;62201;49.966;8.342;2023-03-03T04:37:57;0.35;80.63
61641;HTU21D;62201;49.966;8.342;2023-03-03T04:40:22;0.30;80.28
61641;HTU21D;62201;49.966;8.342;2023-03-03T04:42:47;0.28;81.07
61641;HTU21D;62201;49.966;8.342;2023-03-03T04:45:13;0.30;82.27
61641;HTU21D;62201;49.966;8.342;2023-03-03T04:47:38;0.28;81.33
61641;HTU21D;62201;49.966;8.342;2023-03-03T04:52:32;0.28;81.94
61641;HTU21D;62201;49.966;8.342;2023-03-03T04:54:57;0.27;82.00
61641;HTU21D;62201;49.966;8.342;2023-03-03T04:57:23;0.30;82.52
61641;HTU21D;62201;49.966;8.342;2023-03-03T04:59:48;0.28;82.41
61641;HTU21D;62201;49.966;8.342;2023-03-03T05:02:13;0.30;82.65
61641;HTU21D;62201;49.966;8.342;2023-03-03T05:04:39;0.35;83.01
61641;HTU21D;62201;49.966;8.342;2023-03-03T05:07:05;0.35;82.52
61641;HTU21D;62201;49.966;8.342;2023-03-03T05:09:30;0.34;82.38
61641;HTU21D;62201;49.966;8.342;2023-03-03T05:11:55;0.27;82.16
61641;HTU21D;62201;49.966;8.342;2023-03-03T05:14:21;0.17;82.75
61641;HTU21D;62201;49.966;8.342;2023-03-03T05:16:47;0.15;83.45
61641;HTU21D;62201;49.966;8.342;2023-03-03T05:19:12;0.08;82.93
61641;HTU21D;62201;49.966;8.342;2023-03-03T05:21:38;0.03;85.05
61641;HTU21D;62201;49.966;8.342;2023-03-03T05:24:07;0.12;86.21
61641;HTU21D;62201;49.966;8.342;2023-03-03T05:26:33;0.17;84.16
61641;HTU21D;62201;49.966;8.342;2023-03-03T05:28:58;0.08;83.20
61641;HTU21D;62201;49.966;8.342;2023-03-03T05:31:24;0.03;83.59
61641;HTU21D;62201;49.966;8.342;2023-03-03T05:33:51;0.04;84.04
61641;HTU21D;62201;49.966;8.342;2023-03-03T05:36:17;-0.00;83.50
61641;HTU21D;62201;49.966;8.342;2023-03-03T05:38:42;-0.06;83.65
61641;HTU21D;62201;49.966;8.342;2023-03-03T05:41:08;-0.00;84.81
61641;HTU21D;62201;49.966;8.342;2023-03-03T05:43:33;0.15;86.16
61641;HTU21D;62201;49.966;8.342;2023-03-03T05:45:59;0.24;85.67
61641;HTU21D;62201;49.966;8.342;2023-03-03T05:48:25;0.22;86.03
61641;HTU21D;62201;49.966;8.342;2023-03-03T05:50:50;0.23;85.98
61641;HTU21D;62201;49.966;8.342;2023-03-03T05:53:16;0.20;86.25
61641;HTU21D;62201;49.966;8.342;2023-03-03T05:55:41;0.28;86.68
61641;HTU21D;62201;49.966;8.342;2023-03-03T05:58:07;0.33;87.66
61641;HTU21D;62201;49.966;8.342;2023-03-03T06:00:32;0.35;87.32
61641;HTU21D;62201;49.966;8.342;2023-03-03T06:02:57;0.46;88.35
61641;HTU21D;62201;49.966;8.342;2023-03-03T06:05:23;0.49;88.13
61641;HTU21D;62201;49.966;8.342;2023-03-03T06:07:48;0.53;88.57
61641;HTU21D;62201;49.966;8.342;2023-03-03T06:10:14;0.52;88.63
61641;HTU21D;62201;49.966;8.342;2023-03-03T06:12:39;0.54;88.67
61641;HTU21D;62201;49.966;8.342;2023-03-03T06:15:06;0.50;88.64
61641;HTU21D;62201;49.966;8.342;2023-03-03T06:17:32;0.47;88.89
61641;HTU21D;62201;49.966;8.342;2023-03-03T06:19:57;0.47;89.01
61641;HTU21D;62201;49.966;8.342;2023-03-03T06:22:22;0.51;89.81
61641;HTU21D;62201;49.966;8.342;2023-03-03T06:24:48;0.51;90.00
61641;HTU21D;62201;49.966;8.342;2023-03-03T06:27:13;0.48;90.37
61641;HTU21D;62201;49.966;8.342;2023-03-03T06:29:39;0.48;89.74
61641;HTU21D;62201;49.966;8.342;2023-03-03T06:32:04;0.46;90.62
61641;HTU21D;62201;49.966;8.342;2023-03-03T06:34:29;0.60;95.56
61641;HTU21D;62201;49.966;8.342;2023-03-03T06:36:55;0.65;94.52
61641;HTU21D;62201;49.966;8.342;2023-03-03T06:39:21;0.66;92.24
61641;HTU21D;62201;49.966;8.342;2023-03-03T06:41:46;0.64;91.90
61641;HTU21D;62201;49.966;8.342;2023-03-03T06:44:12;0.66;91.57
61641;HTU21D;62201;49.966;8.342;2023-03-03T06:46:37;0.74;91.93
61641;HTU21D;62201;49.966;8.342;2023-03-03T06:49:03;0.81;91.45
61641;HTU21D;62201;49.966;8.342;2023-03-03T06:51:34;0.80;91.14
61641;HTU21D;62201;49.966;8.342;2023-03-03T06:54:16;0.86;92.17
61641;HTU21D;62201;49.966;8.342;2023-03-03T06:56:44;0.91;93.11
61641;HTU21D;62201;49.966;8.342;2023-03-03T06:59:17;0.90;92.43
61641;HTU21D;62201;49.966;8.342;2023-03-03T07:01:45;0.94;93.30
61641;HTU21D;62201;49.966;8.342;2023-03-03T07:06:57;0.99;93.48
61641;HTU21D;62201;49.966;8.342;2023-03-03T07:09:25;0.99;94.43
61641;HTU21D;62201;49.966;8.342;2023-03-03T07:11:56;1.05;93.68
61641;HTU21D;62201;49.966;8.342;2023-03-03T07:14:24;1.06;95.05
61641;HTU21D;62201;49.966;8.342;2023-03-03T07:16:55;1.12;95.20
61641;HTU21D;62201;49.966;8.342;2023-03-03T07:19:35;1.20;94.64
61641;HTU21D;62201;49.966;8.342;2023-03-03T07:22:15;1.24;95.61
61641;HTU21D;62201;49.966;8.342;2023-03-03T07:24:43;1.32;95.31
61641;HTU21D;62201;49.966;8.342;2023-03-03T07:27:12;1.37;94.86
61641;HTU21D;62201;49.966;8.342;2023-03-03T07:29:39;1.40;94.27
61641;HTU21D;62201;49.966;8.342;2023-03-03T07:32:20;1.46;94.03
61641;HTU21D;62201;49.966;8.342;2023-03-03T07:34:47;1.50;93.96
61641;HTU21D;62201;49.966;8.342;2023-03-03T07:37:28;1.54;93.73
61641;HTU21D;62201;49.966;8.342;2023-03-03T07:39:55;1.60;94.02
61641;HTU21D;62201;49.966;8.342;2023-03-03T07:42:35;1.66;93.47
61641;HTU21D;62201;49.966;8.342;2023-03-03T07:45:25;1.70;93.45
61641;HTU21D;62201;49.966;8.342;2023-03-03T07:47:50;1.75;93.33
61641;HTU21D;62201;49.966;8.342;2023-03-03T07:50:19;1.83;92.88
61641;HTU21D;62201;49.966;8.342;2023-03-03T07:52:58;1.92;92.39
61641;HTU21D;62201;49.966;8.342;2023-03-03T07:55:37;1.96;91.72
61641;HTU21D;62201;49.966;8.342;2023-03-03T08:03:07;2.14;90.89
61641;HTU21D;62201;49.966;8.342;2023-03-03T08:05:37;2.17;90.28
61641;HTU21D;62201;49.966;8.342;2023-03-03T08:08:26;2.30;89.59
61641;HTU21D;62201;49.966;8.342;2023-03-03T08:10:59;2.44;89.31
61641;HTU21D;62201;49.966;8.342;2023-03-03T08:13:44;2.52;88.41
61641;HTU21D;62201;49.966;8.342;2023-03-03T08:18:47;2.96;86.38
61641;HTU21D;62201;49.966;8.342;2023-03-03T08:21:24;3.12;85.00
61641;HTU21D;62201;49.966;8.342;2023-03-03T08:23:50;3.23;84.11
61641;HTU21D;62201;49.966;8.342;2023-03-03T08:26:18;3.28;83.28
61641;HTU21D;62201;49.966;8.342;2023-03-03T08:28:44;3.40;83.28
61641;HTU21D;62201;49.966;8.342;2023-03-03T08:31:10;3.43;81.94
61641;HTU21D;62201;49.966;8.342;2023-03-03T08:33:35;3.55;82.25
61641;HTU21D;62201;49.966;8.342;2023-03-03T08:36:01;3.69;81.25
61641;HTU21D;62201;49.966;8.342;2023-03-03T08:38:26;3.89;79.96
61641;HTU21D;62201;49.966;8.342;2023-03-03T08:40:52;3.89;79.04
61641;HTU21D;62201;49.966;8.342;2023-03-03T08:43:17;3.94;78.98
61641;HTU21D;62201;49.966;8.342;2023-03-03T08:45:47;4.00;78.15
61641;HTU21D;62201;49.966;8.342;2023-03-03T08:48:14;4.12;78.00
61641;HTU21D;62201;49.966;8.342;2023-03-03T08:50:39;4.44;77.16
61641;HTU21D;62201;49.966;8.342;2023-03-03T08:53:05;4.32;76.91
61641;HTU21D;62201;49.966;8.342;2023-03-03T08:55:31;4.48;75.50
61641;HTU21D;62201;49.966;8.342;2023-03-03T08:57:56;4.59;75.30
61641;HTU21D;62201;49.966;8.342;2023-03-03T09:00:22;4.65;74.62
61641;HTU21D;62201;49.966;8.342;2023-03-03T09:02:48;4.62;74.35
61641;HTU21D;62201;49.966;8.342;2023-03-03T09:05:14;4.57;74.33
61641;HTU21D;62201;49.966;8.342;2023-03-03T09:07:42;4.80;73.60
61641;HTU21D;62201;49.966;8.342;2023-03-03T09:10:09;4.78;73.80
61641;HTU21D;62201;49.966;8.342;2023-03-03T09:12:37;4.74;73.81
61641;HTU21D;62201;49.966;8.342;2023-03-03T09:15:17;4.76;72.79
61641;HTU21D;62201;49.966;8.342;2023-03-03T09:17:43;4.64;73.42
61641;HTU21D;62201;49.966;8.342;2023-03-03T09:20:30;4.67;73.40
61641;HTU21D;62201;49.966;8.342;2023-03-03T09:22:59;4.88;73.17
61641;HTU21D;62201;49.966;8.342;2023-03-03T09:25:33;5.35;71.93
61641;HTU21D;62201;49.966;8.342;2023-03-03T09:28:01;5.51;69.93
61641;HTU21D;62201;49.966;8.342;2023-03-03T09:30:38;5.76;69.95
61641;HTU21D;62201;49.966;8.342;2023-03-03T09:38:40;6.41;67.43
61641;HTU21D;62201;49.966;8.342;2023-03-03T10:06:27;8.80;58.93
61641;HTU21D;62201;49.966;8.342;2023-03-03T10:11:32;9.53;56.07
61641;HTU21D;62201;49.966;8.342;2023-03-03T10:27:46;10.08;55.23
61641;HTU21D;62201;49.966;8.342;2023-03-03T10:30:27;9.89;55.24
61641;HTU21D;62201;49.966;8.342;2023-03-03T10:33:04;10.00;55.33
61641;HTU21D;62201;49.966;8.342;2023-03-03T10:35:40;9.81;55.74
61641;HTU21D;62201;49.966;8.342;2023-03-03T10:38:18;9.98;56.32
61641;HTU21D;62201;49.966;8.342;2023-03-03T10:46:06;10.41;53.70
61641;HTU21D;62201;49.966;8.342;2023-03-03T11:00:29;9.94;53.68
61641;HTU21D;62201;49.966;8.342;2023-03-03T11:05:59;9.84;54.73
61641;HTU21D;62201;49.966;8.342;2023-03-03T11:08:35;9.37;55.68
61641;HTU21D;62201;49.966;8.342;2023-03-03T11:14:00;9.62;55.81
61641;HTU21D;62201;49.966;8.342;2023-03-03T11:19:25;10.03;54.20
61641;HTU21D;62201;49.966;8.342;2023-03-03T11:22:45;9.74;54.88
61641;HTU21D;62201;49.966;8.342;2023-03-03T11:33:04;10.70;52.56
61641;HTU21D;62201;49.966;8.342;2023-03-03T11:35:47;10.28;53.56
61641;HTU21D;62201;49.966;8.342;2023-03-03T11:38:23;10.67;52.08
61641;HTU21D;62201;49.966;8.342;2023-03-03T11:40:55;10.36;53.08
61641;HTU21D;62201;49.966;8.342;2023-03-03T11:43:33;10.33;53.10
61641;HTU21D;62201;49.966;8.342;2023-03-03T11:46:07;10.16;53.22
61641;HTU21D;62201;49.966;8.342;2023-03-03T11:51:26;10.33;52.91
61641;HTU21D;62201;49.966;8.342;2023-03-03T11:54:19;9.91;53.81
61641;HTU21D;62201;49.966;8.342;2023-03-03T11:56:46;10.09;53.63
61641;HTU21D;62201;49.966;8.342;2023-03-03T11:59:36;10.12;53.33
61641;HTU21D;62201;49.966;8.342;2023-03-03T12:13:17;10.41;52.77
61641;HTU21D;62201;49.966;8.342;2023-03-03T12:15:54;10.43;52.33
61641;HTU21D;62201;49.966;8.342;2023-03-03T12:19:02;10.92;51.20
61641;HTU21D;62201;49.966;8.342;2023-03-03T12:24:56;10.70;51.16
61641;HTU21D;62201;49.966;8.342;2023-03-03T12:28:04;10.53;51.50
61641;HTU21D;62201;49.966;8.342;2023-03-03T12:33:49;11.15;50.14
61641;HTU21D;62201;49.966;8.342;2023-03-03T12:40:00;10.98;50.08
61641;HTU21D;62201;49.966;8.342;2023-03-03T12:42:15;10.81;50.12
61641;HTU21D;62201;49.966;8.342;2023-03-03T12:44:54;10.94;49.86
61641;HTU21D;62201;49.966;8.342;2023-03-03T12:47:38;11.23;48.90
61641;HTU21D;62201;49.966;8.342;2023-03-03T12:51:03;11.20;48.33
61641;HTU21D;62201;49.966;8.342;2023-03-03T12:55:50;11.39;49.03
61641;HTU21D;62201;49.966;8.342;2023-03-03T12:58:45;11.29;49.14
61641;HTU21D;62201;49.966;8.342;2023-03-03T13:01:39;11.32;48.37
61641;HTU21D;62201;49.966;8.342;2023-03-03T13:07:09;11.64;48.15
61641;HTU21D;62201;49.966;8.342;2023-03-03T13:12:44;11.01;48.37
61641;HTU21D;62201;49.966;8.342;2023-03-03T13:15:15;10.93;49.19
61641;HTU21D;62201;49.966;8.342;2023-03-03T13:28:39;11.64;48.60
61641;HTU21D;62201;49.966;8.342;2023-03-03T13:31:23;11.12;49.43
61641;HTU21D;62201;49.966;8.342;2023-03-03T13:33:57;11.02;50.18
61641;HTU21D;62201;49.966;8.342;2023-03-03T13:39:42;11.23;49.66
61641;HTU21D;62201;49.966;8.342;2023-03-03T13:42:38;11.14;50.08
61641;HTU21D;62201;49.966;8.342;2023-03-03T13:53:11;12.12;47.39
61641;HTU21D;62201;49.966;8.342;2023-03-03T13:55:45;12.58;46.98
61641;HTU21D;62201;49.966;8.342;2023-03-03T14:01:07;12.41;47.05
61641;HTU21D;62201;49.966;8.342;2023-03-03T14:03:48;12.35;46.57
61641;HTU21D;62201;49.966;8.342;2023-03-03T14:06:22;12.90;46.27
61641;HTU21D;62201;49.966;8.342;2023-03-03T14:09:19;13.48;44.38
61641;HTU21D;62201;49.966;8.342;2023-03-03T14:11:59;13.36;44.18
61641;HTU21D;62201;49.966;8.342;2023-03-03T14:17:37;14.08;42.91
61641;HTU21D;62201;49.966;8.342;2023-03-03T14:20:21;13.94;42.91
61641;HTU21D;62201;49.966;8.342;2023-03-03T14:22:54;14.11;41.97
61641;HTU21D;62201;49.966;8.342;2023-03-03T14:25:22;14.21;41.62
61641;HTU21D;62201;49.966;8.342;2023-03-03T14:28:21;14.44;40.68
61641;HTU21D;62201;49.966;8.342;2023-03-03T14:30:41;14.03;41.59
61641;HTU21D;62201;49.966;8.342;2023-03-03T14:35:38;14.78;39.70
61641;HTU21D;62201;49.966;8.342;2023-03-03T14:40:35;14.57;40.13
61641;HTU21D;62201;49.966;8.342;2023-03-03T14:43:05;14.70;39.68
61641;HTU21D;62201;49.966;8.342;2023-03-03T14:45:43;14.68;39.36
61641;HTU21D;62201;49.966;8.342;2023-03-03T14:48:16;15.38;37.99
61641;HTU21D;62201;49.966;8.342;2023-03-03T14:50:51;15.91;37.21
61641;HTU21D;62201;49.966;8.342;2023-03-03T14:55:45;14.52;39.14
61641;HTU21D;62201;49.966;8.342;2023-03-03T14:58:29;14.27;39.62
61641;HTU21D;62201;49.966;8.342;2023-03-03T15:01:12;14.52;39.19
61641;HTU21D;62201;49.966;8.342;2023-03-03T15:03:45;14.03;39.88
61641;HTU21D;62201;49.966;8.342;2023-03-03T15:06:12;14.30;39.42
61641;HTU21D;62201;49.966;8.342;2023-03-03T15:08:51;14.21;39.56
61641;HTU21D;62201;49.966;8.342;2023-03-03T15:11:26;14.19;39.93
61641;HTU21D;62201;49.966;8.342;2023-03-03T15:13:52;13.95;40.34
61641;HTU21D;62201;49.966;8.342;2023-03-03T15:16:23;14.23;40.01
61641;HTU21D;62201;49.966;8.342;2023-03-03T15:21:32;15.43;37.75
61641;HTU21D;62201;49.966;8.342;2023-03-03T15:24:21;14.84;38.45
61641;HTU21D;62201;49.966;8.342;2023-03-03T15:26:56;14.28;39.80
61641;HTU21D;62201;49.966;8.342;2023-03-03T15:29:40;14.37;39.49
61641;HTU21D;62201;49.966;8.342;2023-03-03T15:32:14;14.09;40.05
61641;HTU21D;62201;49.966;8.342;2023-03-03T15:34:57;14.01;40.95
61641;HTU21D;62201;49.966;8.342;2023-03-03T15:43:26;13.49;41.30
61641;HTU21D;62201;49.966;8.342;2023-03-03T15:46:04;12.89;42.56
61641;HTU21D;62201;49.966;8.342;2023-03-03T15:48:40;12.94;42.51
61641;HTU21D;62201;49.966;8.342;2023-03-03T15:57:08;12.82;42.74
61641;HTU21D;62201;49.966;8.342;2023-03-03T16:02:22;12.69;43.28
61641;HTU21D;62201;49.966;8.342;2023-03-03T16:05:36;12.78;43.22
61641;HTU21D;62201;49.966;8.342;2023-03-03T16:07:46;13.27;42.08
61641;HTU21D;62201;49.966;8.342;2023-03-03T16:10:21;12.91;42.76
61641;HTU21D;62201;49.966;8.342;2023-03-03T16:15:40;13.09;42.58
61641;HTU21D;62201;49.966;8.342;2023-03-03T16:23:27;11.73;44.83
61641;HTU21D;62201;49.966;8.342;2023-03-03T16:26:06;11.77;45.19
61641;HTU21D;62201;49.966;8.342;2023-03-03T16:28:39;11.64;44.93
61641;HTU21D;62201;49.966;8.342;2023-03-03T16:31:35;11.10;46.50
61641;HTU21D;62201;49.966;8.342;2023-03-03T16:34:31;10.78;46.86
61641;HTU21D;62201;49.966;8.342;2023-03-03T16:37:13;10.87;46.60
61641;HTU21D;62201;49.966;8.342;2023-03-03T16:42:28;10.10;48.20
61641;HTU21D;62201;49.966;8.342;2023-03-03T16:45:48;9.63;49.65
61641;HTU21D;62201;49.966;8.342;2023-03-03T16:51:02;8.96;50.89
61641;HTU21D;62201;49.966;8.342;2023-03-03T16:57:01;8.43;53.01
61641;HTU21D;62201;49.966;8.342;2023-03-03T17:00:23;8.21;53.20
61641;HTU21D;62201;49.966;8.342;2023-03-03T17:03:12;8.02;53.90
61641;HTU21D;62201;49.966;8.342;2023-03-03T17:05:46;7.87;54.16
61641;HTU21D;62201;49.966;8.342;2023-03-03T17:12:04;7.57;54.74
61641;HTU21D;62201;49.966;8.342;2023-03-03T17:16:57;7.33;55.76
61641;HTU21D;62201;49.966;8.342;2023-03-03T17:27:33;6.91;56.32
61641;HTU21D;62201;49.966;8.342;2023-03-03T17:32:57;6.73;56.88
61641;HTU21D;62201;49.966;8.342;2023-03-03T17:44:00;6.43;58.14
61641;HTU21D;62201;49.966;8.342;2023-03-03T17:51:58;6.15;58.86
61641;HTU21D;62201;49.966;8.342;2023-03-03T18:03:48;5.87;59.70
61641;HTU21D;62201;49.966;8.342;2023-03-03T18:15:03;5.46;60.53
61641;HTU21D;62201;49.966;8.342;2023-03-03T18:23:31;5.38;61.63
61641;HTU21D;62201;49.966;8.342;2023-03-03T18:28:45;5.24;62.41
61641;HTU21D;62201;49.966;8.342;2023-03-03T18:31:24;5.12;64.16
61641;HTU21D;62201;49.966;8.342;2023-03-03T18:34:35;5.08;65.30
61641;HTU21D;62201;49.966;8.342;2023-03-03T18:37:32;5.04;66.54
61641;HTU21D;62201;49.966;8.342;2023-03-03T18:42:39;4.86;64.71
61641;HTU21D;62201;49.966;8.342;2023-03-03T18:48:07;4.56;65.66
61641;HTU21D;62201;49.966;8.342;2023-03-03T18:50:37;4.46;65.69
61641;HTU21D;62201;49.966;8.342;2023-03-03T18:55:53;4.48;66.56
61641;HTU21D;62201;49.966;8.342;2023-03-03T19:00:52;4.50;66.15
61641;HTU21D;62201;49.966;8.342;2023-03-03T19:09:03;4.49;67.25
61641;HTU21D;62201;49.966;8.342;2023-03-03T19:11:39;4.46;68.46
61641;HTU21D;62201;49.966;8.342;2023-03-03T19:14:18;4.45;67.67
61641;HTU21D;62201;49.966;8.342;2023-03-03T19:16:45;4.46;68.61
61641;HTU21D;62201;49.966;8.342;2023-03-03T19:19:14;4.42;68.58
61641;HTU21D;62201;49.966;8.342;2023-03-03T19:21:41;4.33;68.68
61641;HTU21D;62201;49.966;8.342;2023-03-03T19:24:28;4.31;71.11
61641;HTU21D;62201;49.966;8.342;2023-03-03T19:35:13;4.26;70.81
61641;HTU21D;62201;49.966;8.342;2023-03-03T19:40:59;4.33;72.27
61641;HTU21D;62201;49.966;8.342;2023-03-03T19:43:46;4.32;72.64
61641;HTU21D;62201;49.966;8.342;2023-03-03T19:51:58;4.17;72.83
61641;HTU21D;62201;49.966;8.342;2023-03-03T20:08:15;4.13;74.71
61641;HTU21D;62201;49.966;8.342;2023-03-03T20:11:21;4.10;74.71
61641;HTU21D;62201;49.966;8.342;2023-03-03T20:16:54;3.95;75.00
61641;HTU21D;62201;49.966;8.342;2023-03-03T20:19:49;3.91;75.44
61641;HTU21D;62201;49.966;8.342;2023-03-03T20:28:39;3.70;76.98
61641;HTU21D;62201;49.966;8.342;2023-03-03T20:34:12;3.55;76.53
61641;HTU21D;62201;49.966;8.342;2023-03-03T20:37:16;3.49;77.39
61641;HTU21D;62201;49.966;8.342;2023-03-03T20:39:50;3.46;77.44
61641;HTU21D;62201;49.966;8.342;2023-03-03T20:47:36;3.24;77.88
61641;HTU21D;62201;49.966;8.342;2023-03-03T20:50:28;3.19;78.69
61641;HTU21D;62201;49.966;8.342;2023-03-03T20:53:34;3.15;79.69
61641;HTU21D;62201;49.966;8.342;2023-03-03T20:56:27;3.11;79.44
61641;HTU21D;62201;49.966;8.342;2023-03-03T21:01:44;3.10;79.95
61641;HTU21D;62201;49.966;8.342;2023-03-03T21:04:24;3.06;80.45
61641;HTU21D;62201;49.966;8.342;2023-03-03T21:06:50;3.00;80.38
61641;HTU21D;62201;49.966;8.342;2023-03-03T21:09:28;2.99;80.64
61641;HTU21D;62201;49.966;8.342;2023-03-03T21:11:54;2.96;80.86
61641;HTU21D;62201;49.966;8.342;2023-03-03T21:14:21;2.89;80.68
61641;HTU21D;62201;49.966;8.342;2023-03-03T21:16:48;2.86;81.32
61641;HTU21D;62201;49.966;8.342;2023-03-03T21:19:32;2.85;81.80
61641;HTU21D;62201;49.966;8.342;2023-03-03T21:22:02;2.81;81.53
61641;HTU21D;62201;49.966;8.342;2023-03-03T21:24:56;2.72;82.17
61641;HTU21D;62201;49.966;8.342;2023-03-03T21:27:31;2.65;82.53
61641;HTU21D;62201;49.966;8.342;2023-03-03T21:30:10;2.58;82.61
61641;HTU21D;62201;49.966;8.342;2023-03-03T21:32:44;2.52;83.02
61641;HTU21D;62201;49.966;8.342;2023-03-03T21:35:13;2.51;83.50
61641;HTU21D;62201;49.966;8.342;2023-03-03T21:37:47;2.47;83.78
61641;HTU21D;62201;49.966;8.342;2023-03-03T21:40:27;2.42;83.86
61641;HTU21D;62201;49.966;8.342;2023-03-03T21:42:55;2.37;83.97